aviador You're here:

KMPV Decoded Metar

MONTPELIER in VT, USA
Report Time2018-07-22 15:51:00
UTC Time2018-07-22 16:06:29
Flight Rules mvfr MVFR
Wind150° at 04 kt
W.Decomp.*RWY 17: 4.0 kt HW 0.3 kt LCW
RWY 23: 1.8 kt HW 3.6 kt LCW
W.Rank150° ranks 13
Current wind is below 150° avg. (7.0)
Visibility9999 m
Phenomena:Light Rain
Clouds:Broken 019 Hf
Overcast 025 Hf
Expected CloudBase > 400 ft AGL from Temp-Dew spread
Ceiling1,900 ft
Temp17°C (ISA +4)
Dew Point16°C (94% RH)
QNH1020 hPa
Density Alt1,634 ft
Elevation1,125 ft
Report Wrong Elevation
Raw Report
KMPV 221551Z AUTO 15004KT 10SM -RA BKN019 OVC025 17/16 A3013 RMK
AO2 SLP204 P0006 T01720161=

Extra information for KMPV:More info

Metar Taf Metar & Taf Last 4 Metars F.Rules Stats Wind Profile Meteogram Temp Stats Airport Information Weather charts Add Link Nearby VenuesMetar ALERT Operation Metar Decoded Social comments

AIRNAV info for KMPV